San Gennaro — IIOT2 — position and weather

sailwx.info

Track history (hours):
 
Tides and Currents Weather Stations Pressure Air Temp Water Temp Dewpoint Dewpoint Depression Visibility Wind Speed Wind Dir Waves Ship Positions

San Gennaro

Last reported at 2018-Jan-24 10:08 UTC. Time now 2018-Feb-21 07:45 UTC.
Position N 40°49' E 014°18'.
Warning: this ship's position is 27 days out of date.

Length 27 m; draft 5.2 m.

Type: Tug. MMSI: 247295700.

Date/timePositionNaut miles runAvg speedWind from/ knotsBaromVisibWave heightAir tempDewpointWater temp
2018-Jan-24 10:08N 40°49' E 014°18'1 3.8
2018-Jan-24 09:49N 40°49' E 014°19'1 2.6
2018-Jan-24 09:22N 40°49' E 014°17'0 0.6
2018-Jan-24 08:56N 40°49' E 014°18'2 0.1
2018-Jan-23 16:32N 40°50' E 014°17'4 7.6
2018-Jan-23 16:01N 40°47' E 014°19'113.6
2018-Jan-23 15:57N 40°46' E 014°20'2 3.9
2018-Jan-23 15:20N 40°48' E 014°18'3 7.5
2018-Jan-23 14:54N 40°46' E 014°21'1 2.5
2018-Jan-23 14:26N 40°47' E 014°20'1 1.8
2018-Jan-23 13:51N 40°46' E 014°21'2 7.0
2018-Jan-23 13:30N 40°45' E 014°24'3 4.2
2018-Jan-23 12:40N 40°46' E 014°20'211.4
2018-Jan-23 12:28N 40°45' E 014°22'  
Track history (hours):
 
Tides and Currents Weather Stations Pressure Air Temp Water Temp Dewpoint Dewpoint Depression Visibility Wind Speed Wind Dir Waves Ship Positions

San Gennaro

Last reported at 2018-Jan-24 10:08 UTC. Time now 2018-Feb-21 07:45 UTC.
Position N 40°49' E 014°18'.
Warning: this ship's position is 27 days out of date.

Length 27 m; draft 5.2 m.

Type: Tug. MMSI: 247295700.

Date/timePositionNaut miles runAvg speedWind from/ knotsBaromVisibWave heightAir tempDewpointWater temp
2018-Jan-24 10:08N 40°49' E 014°18'1 3.8
2018-Jan-24 09:49N 40°49' E 014°19'1 2.6
2018-Jan-24 09:22N 40°49' E 014°17'0 0.6
2018-Jan-24 08:56N 40°49' E 014°18'2 0.1
2018-Jan-23 16:32N 40°50' E 014°17'4 7.6
2018-Jan-23 16:01N 40°47' E 014°19'113.6
2018-Jan-23 15:57N 40°46' E 014°20'2 3.9
2018-Jan-23 15:20N 40°48' E 014°18'3 7.5
2018-Jan-23 14:54N 40°46' E 014°21'1 2.5
2018-Jan-23 14:26N 40°47' E 014°20'1 1.8
2018-Jan-23 13:51N 40°46' E 014°21'2 7.0
2018-Jan-23 13:30N 40°45' E 014°24'3 4.2
2018-Jan-23 12:40N 40°46' E 014°20'211.4
2018-Jan-23 12:28N 40°45' E 014°22'  

Dump ship's entire track history